This is the latest recevied weather packets stored in our database for station/object WA6OOO. If no packets are shown the sender has not sent any weather packets the latest 10 day(s).
| Time | Temp. | Humidity | Pressure | Rain* | Wind** | Luminosity | Snow |
|---|---|---|---|---|---|---|---|
| 1788109268 | 24.44° C | 65% | 1016 hPa | 0 mm | - | 527 W/m² | - |
| 1788108968 | 24.44° C | 66% | 1015.9 hPa | 0 mm | - | 263 W/m² | - |
| 1788108679 | 24.44° C | 68% | 1015.9 hPa | 0 mm | - | 379 W/m² | - |
| 1788108359 | 23.89° C | 71% | 1016 hPa | 0 mm | - | 306 W/m² | - |
| 1788108055 | 25° C | 69% | 1016 hPa | 0 mm | - | 186 W/m² | - |
| 1788107752 | 24.44° C | 69% | 1016.1 hPa | 0 mm | - | 316 W/m² | - |
| 1788107451 | 24.44° C | 69% | 1016.1 hPa | 0 mm | - | 184 W/m² | - |
| 1788107147 | 24.44° C | 69% | 1016 hPa | 0 mm | - | 188 W/m² | - |
| 1788106843 | 24.44° C | 69% | 1016.1 hPa | 0 mm | - | 201 W/m² | - |
| 1788106542 | 24.44° C | 68% | 1016 hPa | 0 mm | - | 209 W/m² | - |
| 1788106237 | 24.44° C | 67% | 1015.8 hPa | 0 mm | - | 227 W/m² | - |
| 1788105933 | 24.44° C | 68% | 1015.9 hPa | 0 mm | - | 330 W/m² | - |
| 1788105629 | 23.89° C | 71% | 1015.7 hPa | 0 mm | - | 240 W/m² | - |
| 1788105325 | 23.89° C | 74% | 1015.8 hPa | 0 mm | - | 299 W/m² | - |
| 1788105020 | 23.89° C | 74% | 1016 hPa | 0 mm | - | 281 W/m² | - |
| 1788104715 | 23.89° C | 73% | 1016 hPa | 0 mm | - | 288 W/m² | - |
| 1788104413 | 23.33° C | 76% | 1015.9 hPa | 0 mm | - | 266 W/m² | - |
| 1788104108 | 23.89° C | 73% | 1016 hPa | 0 mm | - | 90 W/m² | - |
| 1788103807 | 23.89° C | 73% | 1016.1 hPa | 0 mm | - | 110 W/m² | - |
| 1788103503 | 23.89° C | 68% | 1016 hPa | 0 mm | - | 163 W/m² | - |
| 1788103201 | 23.89° C | 67% | 1015.8 hPa | 0 mm | - | 82 W/m² | - |
| 1788102901 | 23.89° C | 68% | 1015.8 hPa | 0 mm | - | 73 W/m² | - |
| 1788102596 | 23.89° C | 73% | 1015.8 hPa | 0 mm | - | 68 W/m² | - |
| 1788102299 | 22.22° C | 78% | 1015.9 hPa | 0 mm | - | 151 W/m² | - |
| 1788101996 | 22.22° C | 81% | 1016 hPa | 0 mm | - | 54 W/m² | - |
* Rain latest hour (hover to see other rain measurements)
** Current wind speed in m/s (hover to see current wind gust speed)